British Holly — MCZN2 — position and weather

sailwx.info

Track history (hours):
 
Tides and Currents Weather Stations Pressure Air Temp Water Temp Dewpoint Dewpoint Depression Visibility Wind Speed Wind Dir Waves Ship Positions

British Holly

Last reported at 2015-Aug-02 04:07 UTC. Time now 2015-Aug-02 20:28 UTC.
Position N 01°10' E 103°39'.

Type: Ship. MMSI: 235814000.

Date/timePositionNaut miles runAvg speedWind from/ knotsBaromVisibWave heightAir tempDewpointWater temp
2015-Aug-02 04:07N 01°10' E 103°39'4 7.5
2015-Aug-02 03:33N 01°09' E 103°43'1110.6
2015-Aug-02 02:33N 01°13' E 103°53'1211.6
2015-Aug-02 01:29N 01°16' E 104°05'  
2015-Jul-30 03:08N 01°15' E 104°06'610.4
2015-Jul-30 02:33N 01°15' E 104°00'6 5.6
2015-Jul-30 01:33N 01°15' E 103°55'0 0.1
2015-Jul-30 00:31N 01°15' E 103°55'0 0.1
2015-Jul-29 23:13N 01°15' E 103°55'0 0.0
2015-Jul-29 22:32N 01°15' E 103°55'0 0.1
2015-Jul-29 21:32N 01°15' E 103°55'0 0.0
2015-Jul-29 20:26N 01°15' E 103°55'0 0.0
2015-Jul-29 19:32N 01°15' E 103°55'0 0.0
2015-Jul-29 17:32N 01°15' E 103°55'0 0.0
2015-Jul-29 16:33N 01°15' E 103°55'0 0.1
2015-Jul-29 15:31N 01°15' E 103°55'0 0.2
2015-Jul-29 14:31N 01°15' E 103°55'0 0.0
2015-Jul-29 12:22N 01°15' E 103°55'0 0.0
2015-Jul-29 11:31N 01°15' E 103°55'0 0.0
2015-Jul-29 08:25N 01°15' E 103°55'0 0.1
2015-Jul-29 07:28N 01°15' E 103°55'0 0.1
2015-Jul-29 06:22N 01°15' E 103°55'0 0.0
2015-Jul-29 04:31N 01°15' E 103°55'0 0.0
2015-Jul-28 23:07N 01°15' E 103°55'0 0.1
2015-Jul-28 22:22N 01°15' E 103°55'0 0.1
2015-Jul-28 21:31N 01°15' E 103°55'0 0.0
2015-Jul-28 19:28N 01°15' E 103°55'0 0.0
2015-Jul-28 18:16N 01°15' E 103°55'0 0.1
2015-Jul-28 17:28N 01°15' E 103°55'0 0.1
2015-Jul-28 15:28N 01°15' E 103°55'0 0.1
2015-Jul-28 14:31N 01°15' E 103°55'0 0.1
2015-Jul-28 13:22N 01°15' E 103°55'0 0.1
2015-Jul-28 12:22N 01°15' E 103°55'0 0.0
2015-Jul-28 11:31N 01°15' E 103°55'0 0.0
2015-Jul-28 09:25N 01°15' E 103°55'0 0.0
2015-Jul-28 08:28N 01°15' E 103°55'0 0.0
2015-Jul-28 07:16N 01°15' E 103°55'0 0.1
2015-Jul-28 06:19N 01°15' E 103°55'0 0.0
2015-Jul-28 05:31N 01°15' E 103°55'0 0.1
2015-Jul-28 04:19N 01°15' E 103°55'0 0.1
2015-Jul-28 03:19N 01°15' E 103°55'0 0.1
2015-Jul-28 02:28N 01°15' E 103°55'0 0.1
2015-Jul-28 01:31N 01°15' E 103°55'0 0.0
2015-Jul-28 00:28N 01°15' E 103°55'0 0.0
2015-Jul-27 23:28N 01°15' E 103°55'0 0.1
2015-Jul-27 22:31N 01°15' E 103°55'0 0.0
2015-Jul-27 21:31N 01°15' E 103°55'0 0.1
2015-Jul-27 20:16N 01°15' E 103°55'0 0.0
2015-Jul-27 19:19N 01°15' E 103°55'0 0.0
2015-Jul-27 17:16N 01°15' E 103°55'0 0.0
2015-Jul-27 15:16N 01°15' E 103°55'0 0.0
2015-Jul-27 14:31N 01°15' E 103°55'0 0.0
2015-Jul-27 13:31N 01°15' E 103°55'0 0.1
2015-Jul-27 11:31N 01°15' E 103°55'0 0.1
2015-Jul-27 10:25N 01°15' E 103°55'0 0.0
2015-Jul-27 09:25N 01°15' E 103°55'0 0.0
2015-Jul-27 08:31N 01°15' E 103°55'0 0.2
2015-Jul-27 07:25N 01°15' E 103°55'0 0.1
2015-Jul-27 05:28N 01°15' E 103°55'0 0.1
2015-Jul-27 04:31N 01°15' E 103°55'0 0.2
2015-Jul-27 03:31N 01°15' E 103°55'3 2.9
2015-Jul-27 02:33N 01°15' E 103°58'5 5.5
2015-Jul-27 01:34N 01°12' E 103°53'  
2015-Jul-23 09:19N 02°13' E 102°06'0 0.0
2015-Jul-23 07:22N 02°13' E 102°06'  
Track history (hours):
 
Tides and Currents Weather Stations Pressure Air Temp Water Temp Dewpoint Dewpoint Depression Visibility Wind Speed Wind Dir Waves Ship Positions

British Holly

Last reported at 2015-Aug-02 04:07 UTC. Time now 2015-Aug-02 20:28 UTC.
Position N 01°10' E 103°39'.

Type: Ship. MMSI: 235814000.

Date/timePositionNaut miles runAvg speedWind from/ knotsBaromVisibWave heightAir tempDewpointWater temp
2015-Aug-02 04:07N 01°10' E 103°39'4 7.5
2015-Aug-02 03:33N 01°09' E 103°43'1110.6
2015-Aug-02 02:33N 01°13' E 103°53'1211.6
2015-Aug-02 01:29N 01°16' E 104°05'  
2015-Jul-30 03:08N 01°15' E 104°06'610.4
2015-Jul-30 02:33N 01°15' E 104°00'6 5.6
2015-Jul-30 01:33N 01°15' E 103°55'0 0.1
2015-Jul-30 00:31N 01°15' E 103°55'0 0.1
2015-Jul-29 23:13N 01°15' E 103°55'0 0.0
2015-Jul-29 22:32N 01°15' E 103°55'0 0.1
2015-Jul-29 21:32N 01°15' E 103°55'0 0.0
2015-Jul-29 20:26N 01°15' E 103°55'0 0.0
2015-Jul-29 19:32N 01°15' E 103°55'0 0.0
2015-Jul-29 17:32N 01°15' E 103°55'0 0.0
2015-Jul-29 16:33N 01°15' E 103°55'0 0.1
2015-Jul-29 15:31N 01°15' E 103°55'0 0.2
2015-Jul-29 14:31N 01°15' E 103°55'0 0.0
2015-Jul-29 12:22N 01°15' E 103°55'0 0.0
2015-Jul-29 11:31N 01°15' E 103°55'0 0.0
2015-Jul-29 08:25N 01°15' E 103°55'0 0.1
2015-Jul-29 07:28N 01°15' E 103°55'0 0.1
2015-Jul-29 06:22N 01°15' E 103°55'0 0.0
2015-Jul-29 04:31N 01°15' E 103°55'0 0.0
2015-Jul-28 23:07N 01°15' E 103°55'0 0.1
2015-Jul-28 22:22N 01°15' E 103°55'0 0.1
2015-Jul-28 21:31N 01°15' E 103°55'0 0.0
2015-Jul-28 19:28N 01°15' E 103°55'0 0.0
2015-Jul-28 18:16N 01°15' E 103°55'0 0.1
2015-Jul-28 17:28N 01°15' E 103°55'0 0.1
2015-Jul-28 15:28N 01°15' E 103°55'0 0.1
2015-Jul-28 14:31N 01°15' E 103°55'0 0.1
2015-Jul-28 13:22N 01°15' E 103°55'0 0.1
2015-Jul-28 12:22N 01°15' E 103°55'0 0.0
2015-Jul-28 11:31N 01°15' E 103°55'0 0.0
2015-Jul-28 09:25N 01°15' E 103°55'0 0.0
2015-Jul-28 08:28N 01°15' E 103°55'0 0.0
2015-Jul-28 07:16N 01°15' E 103°55'0 0.1
2015-Jul-28 06:19N 01°15' E 103°55'0 0.0
2015-Jul-28 05:31N 01°15' E 103°55'0 0.1
2015-Jul-28 04:19N 01°15' E 103°55'0 0.1
2015-Jul-28 03:19N 01°15' E 103°55'0 0.1
2015-Jul-28 02:28N 01°15' E 103°55'0 0.1
2015-Jul-28 01:31N 01°15' E 103°55'0 0.0
2015-Jul-28 00:28N 01°15' E 103°55'0 0.0
2015-Jul-27 23:28N 01°15' E 103°55'0 0.1
2015-Jul-27 22:31N 01°15' E 103°55'0 0.0
2015-Jul-27 21:31N 01°15' E 103°55'0 0.1
2015-Jul-27 20:16N 01°15' E 103°55'0 0.0
2015-Jul-27 19:19N 01°15' E 103°55'0 0.0
2015-Jul-27 17:16N 01°15' E 103°55'0 0.0
2015-Jul-27 15:16N 01°15' E 103°55'0 0.0
2015-Jul-27 14:31N 01°15' E 103°55'0 0.0
2015-Jul-27 13:31N 01°15' E 103°55'0 0.1
2015-Jul-27 11:31N 01°15' E 103°55'0 0.1
2015-Jul-27 10:25N 01°15' E 103°55'0 0.0
2015-Jul-27 09:25N 01°15' E 103°55'0 0.0
2015-Jul-27 08:31N 01°15' E 103°55'0 0.2
2015-Jul-27 07:25N 01°15' E 103°55'0 0.1
2015-Jul-27 05:28N 01°15' E 103°55'0 0.1
2015-Jul-27 04:31N 01°15' E 103°55'0 0.2
2015-Jul-27 03:31N 01°15' E 103°55'3 2.9
2015-Jul-27 02:33N 01°15' E 103°58'5 5.5
2015-Jul-27 01:34N 01°12' E 103°53'  
2015-Jul-23 09:19N 02°13' E 102°06'0 0.0
2015-Jul-23 07:22N 02°13' E 102°06'  

Dump ship's entire track history